Time,TemperatureF,DewpointF,PressureIn,WindDirection,WindDirectionDegrees,WindSpeedMPH,WindSpeedGustMPH,Humidity,HourlyPrecipIn,Conditions,Clouds,dailyrainin,SoftwareType,DateUTC
2013-04-26 21:28:00,45.1,0.3,24.66,WNW,292,12.8,12.8,15,0.00,,,0.56,VWS V14.00,2013-04-27 01:28:00,
2013-04-26 21:33:00,69.4,14.6,24.66,NW,315,0.0,0.0,12,0.00,,,0.00,VWS V14.00,2013-04-27 01:33:00,
2013-04-26 21:34:00,45.1,0.2,24.66,WNW,292,12.8,12.8,15,0.00,,,0.00,VWS V14.00,2013-04-27 01:34:00,
2013-04-26 21:36:00,45.1,0.2,24.66,West,270,0.0,12.8,15,0.00,,,0.00,VWS V14.00,2013-04-27 01:36:00,
2013-04-26 21:38:00,68.9,14.2,24.83,West,270,0.0,0.0,12,0.00,,,0.00,VWS V14.00,2013-04-27 01:38:00,
2013-04-26 21:39:00,45.1,0.2,24.66,West,270,0.0,0.0,15,0.00,,,0.00,VWS V14.00,2013-04-27 01:39:00,
2013-04-26 21:43:00,68.2,13.7,24.83,SSW,202,0.0,0.0,12,0.00,,,0.00,VWS V14.00,2013-04-27 01:43:00,
2013-04-26 21:44:00,68.9,14.2,24.83,West,270,0.0,0.0,12,0.00,,,0.00,VWS V14.00,2013-04-27 01:44:00,
2013-04-26 21:46:00,68.9,14.2,24.83,West,270,0.0,0.0,12,0.00,,,0.00,VWS V14.00,2013-04-27 01:46:00,
2013-04-26 21:47:00,68.9,14.2,24.83,West,270,0.0,0.0,12,0.00,,,0.00,VWS V14.00,2013-04-27 01:47:00,
2013-04-26 21:48:00,68.2,13.7,24.83,WSW,248,5.4,5.4,12,0.00,,,0.00,VWS V14.00,2013-04-27 01:48:00,
2013-04-26 21:49:00,68.9,14.2,24.83,SW,225,0.0,0.0,12,0.00,,,0.00,VWS V14.00,2013-04-27 01:49:00,
2013-04-26 21:50:00,68.2,13.7,24.83,SSW,202,0.0,0.0,12,0.00,,,0.00,VWS V14.00,2013-04-27 01:50:00,
2013-04-26 21:51:00,68.2,13.7,24.83,WSW,248,0.0,0.0,12,0.00,,,0.00,VWS V14.00,2013-04-27 01:51:00,
2013-04-26 21:52:00,68.2,13.7,24.83,WSW,248,0.0,0.0,12,0.00,,,0.00,VWS V14.00,2013-04-27 01:52:00,
2013-04-26 21:54:00,68.2,13.7,24.83,WSW,248,5.4,5.4,12,0.00,,,0.00,VWS V14.00,2013-04-27 01:54:00,
2013-04-26 21:55:00,68.2,13.7,24.83,WSW,248,5.4,5.4,12,0.00,,,0.00,VWS V14.00,2013-04-27 01:55:00,
2013-04-26 21:56:00,68.2,13.7,24.83,WSW,248,0.0,5.4,12,0.00,,,0.00,VWS V14.00,2013-04-27 01:56:00,
2013-04-26 21:57:00,68.2,13.7,24.83,NW,315,0.0,0.0,12,0.00,,,0.00,VWS V14.00,2013-04-27 01:57:00,
2013-04-26 21:58:00,67.6,13.2,24.83,WSW,248,0.0,0.0,12,0.00,,,0.00,VWS V14.00,2013-04-27 01:58:00,